createdAt,value
2023-04-17T00:02:03.808Z,33.13
2023-04-17T00:04:34.350Z,38.30
2023-04-17T00:07:05.326Z,31.37
2023-04-17T00:09:38.940Z,33.43
2023-04-17T00:12:08.950Z,32.70
2023-04-17T00:14:38.721Z,30.63
2023-04-17T00:17:09.313Z,32.30
2023-04-17T00:19:39.639Z,31.20
2023-04-17T00:22:10.031Z,28.47
2023-04-17T00:24:40.443Z,28.33
2023-04-17T00:27:13.840Z,30.07
2023-04-17T00:29:44.633Z,30.27
2023-04-17T00:32:14.872Z,27.10
2023-04-17T00:34:44.477Z,31.20
2023-04-17T00:37:15.386Z,26.83
2023-04-17T00:39:45.474Z,27.90
2023-04-17T00:42:15.863Z,32.23
2023-04-17T00:44:49.450Z,33.50
2023-04-17T00:47:21.775Z,29.60
2023-04-17T00:49:50.344Z,33.10
2023-04-17T00:52:31.141Z,33.17
2023-04-17T00:54:58.500Z,31.07
2023-04-17T00:57:24.720Z,29.80
2023-04-17T00:59:52.111Z,30.70
2023-04-17T01:02:27.495Z,33.73
2023-04-17T01:04:57.561Z,36.50
2023-04-17T01:07:29.143Z,31.73
2023-04-17T01:09:58.455Z,32.40
2023-04-17T01:12:28.764Z,29.17
2023-04-17T01:14:58.841Z,26.97
2023-04-17T01:17:29.113Z,28.07
2023-04-17T01:20:06.674Z,28.57
2023-04-17T01:22:34.353Z,25.17
2023-04-17T01:25:05.228Z,27.80
2023-04-17T01:27:37.840Z,33.80
2023-04-17T01:30:08.863Z,25.70
2023-04-17T01:32:38.926Z,30.03
2023-04-17T01:35:09.508Z,28.73
2023-04-17T01:37:41.005Z,26.57
2023-04-17T01:40:11.276Z,26.13
2023-04-17T01:42:40.720Z,28.90
2023-04-17T01:45:11.056Z,33.80
2023-04-17T01:47:41.369Z,37.23
2023-04-17T01:50:12.089Z,29.33
2023-04-17T01:52:41.757Z,30.07
2023-04-17T01:55:16.105Z,30.13
2023-04-17T01:57:48.205Z,27.10
2023-04-17T02:00:16.781Z,28.70
2023-04-17T02:02:47.225Z,26.07
2023-04-17T02:05:17.370Z,26.00
2023-04-17T02:07:49.788Z,25.27
2023-04-17T02:10:18.097Z,24.97
2023-04-17T02:12:48.121Z,32.07
2023-04-17T02:15:18.796Z,23.90
2023-04-17T02:17:49.025Z,28.20
2023-04-17T02:20:19.394Z,32.50
2023-04-17T02:22:55.173Z,26.23
2023-04-17T02:25:26.004Z,26.03
2023-04-17T02:27:56.605Z,26.33
2023-04-17T02:30:27.060Z,32.43
2023-04-17T02:32:57.664Z,27.50
2023-04-17T02:35:30.199Z,24.80
2023-04-17T02:37:57.456Z,26.80
2023-04-17T02:40:31.543Z,22.97
2023-04-17T02:43:02.196Z,22.70
2023-04-17T02:45:32.469Z,25.83
2023-04-17T02:48:03.559Z,22.53
2023-04-17T02:50:33.747Z,27.27
2023-04-17T02:53:04.029Z,30.73
2023-04-17T02:55:34.639Z,27.70
2023-04-17T02:58:08.323Z,26.40
2023-04-17T03:00:39.535Z,29.10
2023-04-17T03:03:08.885Z,28.97
2023-04-17T03:05:39.594Z,30.93
2023-04-17T03:08:09.945Z,27.50
2023-04-17T03:10:41.747Z,33.37
2023-04-17T03:13:09.666Z,29.43
2023-04-17T03:15:42.462Z,30.07
2023-04-17T03:18:13.180Z,34.47
2023-04-17T03:20:43.517Z,27.03
2023-04-17T03:23:13.805Z,31.70
2023-04-17T03:25:47.027Z,31.60
2023-04-17T03:28:17.800Z,35.97
2023-04-17T03:30:48.652Z,31.37
2023-04-17T03:33:17.812Z,32.00
2023-04-17T03:35:48.028Z,31.60
2023-04-17T03:38:18.393Z,34.50
2023-04-17T03:40:48.795Z,40.00
2023-04-17T03:43:22.942Z,37.60
2023-04-17T03:45:53.459Z,32.30
2023-04-17T03:48:24.108Z,41.40
2023-04-17T03:50:56.076Z,32.27
2023-04-17T03:53:25.296Z,34.97
2023-04-17T03:55:56.162Z,31.23
2023-04-17T03:58:26.194Z,36.27
2023-04-17T04:01:01.469Z,33.40
2023-04-17T04:03:31.189Z,42.13
2023-04-17T04:06:02.024Z,34.47
2023-04-17T04:08:31.581Z,31.53
2023-04-17T04:11:02.630Z,40.30
2023-04-17T04:13:33.223Z,31.13
2023-04-17T04:16:02.675Z,38.70
2023-04-17T04:18:36.541Z,33.17
2023-04-17T04:21:06.756Z,34.47
2023-04-17T04:23:39.468Z,35.63
2023-04-17T04:26:11.091Z,31.80
2023-04-17T04:28:40.103Z,38.93
2023-04-17T04:31:10.694Z,33.93
2023-04-17T04:33:40.447Z,33.90
2023-04-17T04:36:20.214Z,30.50
2023-04-17T04:38:49.631Z,32.47
2023-04-17T04:41:19.594Z,34.27
2023-04-17T04:43:54.575Z,32.10
2023-04-17T04:46:20.721Z,32.70
2023-04-17T04:48:46.827Z,33.77
2023-04-17T04:51:13.953Z,33.10
2023-04-17T04:53:48.705Z,32.77
2023-04-17T04:56:19.829Z,32.73
2023-04-17T04:58:49.893Z,34.93
2023-04-17T05:01:20.420Z,31.20
2023-04-17T05:03:50.561Z,33.17
2023-04-17T05:06:20.529Z,35.93
2023-04-17T05:08:51.327Z,35.47
2023-04-17T05:11:25.391Z,30.27
2023-04-17T05:13:55.262Z,30.30
2023-04-17T05:16:25.379Z,31.07
2023-04-17T05:18:55.806Z,33.20
2023-04-17T05:21:27.314Z,29.73
2023-04-17T05:23:55.803Z,34.23
2023-04-17T05:26:26.374Z,33.30
2023-04-17T05:29:01.802Z,34.40
2023-04-17T05:31:31.971Z,33.10
2023-04-17T05:34:01.733Z,31.93
2023-04-17T05:36:32.498Z,30.93
2023-04-17T05:39:03.107Z,27.93
2023-04-17T05:41:33.022Z,27.07
2023-04-17T05:44:02.723Z,35.50
2023-04-17T05:46:35.794Z,33.07
2023-04-17T05:49:06.974Z,35.33
2023-04-17T05:51:37.618Z,30.07
2023-04-17T05:54:07.954Z,31.43
2023-04-17T05:56:38.605Z,29.23
2023-04-17T05:59:08.530Z,33.17
2023-04-17T06:01:38.957Z,33.80
2023-04-17T06:04:09.731Z,32.80
2023-04-17T06:06:39.979Z,39.93
2023-04-17T06:09:10.716Z,30.47
2023-04-17T06:11:40.461Z,34.27
2023-04-17T06:14:14.750Z,32.63
2023-04-17T06:16:44.998Z,32.30
2023-04-17T06:19:15.376Z,27.20
2023-04-17T06:21:45.565Z,30.57
2023-04-17T06:24:18.145Z,30.20
2023-04-17T06:26:46.983Z,32.60
2023-04-17T06:29:16.963Z,35.13
2023-04-17T06:31:51.776Z,32.93
2023-04-17T06:34:21.865Z,34.00
2023-04-17T06:36:52.985Z,30.67
2023-04-17T06:39:25.732Z,33.30
2023-04-17T06:41:58.548Z,35.80
2023-04-17T06:44:26.494Z,32.17
2023-04-17T06:46:58.804Z,36.23
2023-04-17T06:49:31.107Z,35.07
2023-04-17T06:52:01.210Z,29.27
2023-04-17T06:54:32.668Z,32.97
2023-04-17T06:57:09.908Z,31.43
2023-04-17T06:59:36.587Z,38.43
2023-04-17T07:02:07.643Z,30.63
2023-04-17T07:04:38.199Z,30.07
2023-04-17T07:07:08.902Z,24.00
2023-04-17T07:09:39.487Z,28.33
2023-04-17T07:12:10.259Z,26.77
2023-04-17T07:14:43.620Z,24.20
2023-04-17T07:17:14.424Z,24.50
2023-04-17T07:19:44.966Z,23.80
2023-04-17T07:22:15.347Z,24.57
2023-04-17T07:24:45.547Z,22.10
2023-04-17T07:27:15.705Z,22.07
2023-04-17T07:29:52.203Z,23.27
2023-04-17T07:32:26.375Z,23.60
2023-04-17T07:34:53.103Z,24.97
2023-04-17T07:37:25.051Z,20.13
2023-04-17T07:39:56.498Z,20.47
2023-04-17T07:42:28.603Z,21.47
2023-04-17T07:44:58.255Z,20.87
2023-04-17T07:47:28.692Z,15.77
2023-04-17T07:50:02.106Z,18.40
2023-04-17T07:52:31.965Z,16.17
2023-04-17T07:55:02.007Z,16.67
2023-04-17T07:57:32.740Z,15.90
2023-04-17T08:00:03.987Z,15.77
2023-04-17T08:02:32.639Z,13.90
2023-04-17T08:05:03.810Z,14.40
2023-04-17T08:07:39.442Z,15.10
2023-04-17T08:10:08.746Z,13.77
2023-04-17T08:12:39.101Z,14.90
2023-04-17T08:15:09.069Z,14.07
2023-04-17T08:17:39.350Z,12.80
2023-04-17T08:20:12.875Z,12.87
2023-04-17T08:22:42.324Z,12.90
2023-04-17T08:25:14.721Z,12.50
2023-04-17T08:27:44.892Z,12.50
2023-04-17T08:30:18.780Z,12.50
2023-04-17T08:32:56.688Z,12.47
2023-04-17T08:35:23.058Z,12.37
2023-04-17T08:37:55.347Z,14.17
2023-04-17T08:40:26.347Z,12.97
2023-04-17T08:43:00.097Z,11.47
2023-04-17T08:45:28.474Z,11.87
2023-04-17T08:48:00.400Z,10.73
2023-04-17T08:50:31.981Z,11.23
2023-04-17T08:53:03.186Z,10.77
2023-04-17T08:55:33.480Z,10.93
2023-04-17T08:58:08.439Z,11.83
2023-04-17T09:00:39.660Z,10.17
2023-04-17T09:03:11.599Z,12.60
2023-04-17T09:05:41.959Z,11.40
2023-04-17T09:08:21.533Z,9.90
2023-04-17T09:10:51.833Z,9.10
2023-04-17T09:13:24.247Z,8.33
2023-04-17T09:16:05.502Z,7.73
2023-04-17T09:18:32.366Z,9.33
2023-04-17T09:21:02.682Z,9.73
2023-04-17T09:23:45.684Z,9.87
2023-04-17T09:26:13.288Z,10.97
2023-04-17T09:28:39.808Z,11.40
2023-04-17T09:31:17.835Z,10.40
2023-04-17T09:34:02.756Z,16.60
2023-04-17T09:36:31.187Z,9.80
2023-04-17T09:39:04.026Z,8.80
2023-04-17T09:41:38.631Z,7.60
2023-04-17T09:44:05.656Z,8.43
2023-04-17T09:46:45.207Z,8.07
2023-04-17T09:49:23.124Z,11.20
2023-04-17T09:51:53.610Z,8.80
2023-04-17T09:54:25.340Z,8.63
2023-04-17T09:56:57.967Z,9.60
2023-04-17T09:59:30.263Z,12.07
2023-04-17T10:02:07.562Z,8.33
2023-04-17T10:04:42.490Z,9.13
2023-04-17T10:07:14.063Z,8.83
2023-04-17T10:09:46.672Z,7.80
2023-04-17T10:12:18.374Z,10.93
2023-04-17T10:14:50.877Z,8.33
2023-04-17T10:17:30.829Z,8.07
2023-04-17T10:20:16.937Z,7.87
2023-04-17T10:22:56.083Z,8.23
2023-04-17T10:25:27.658Z,10.73
2023-04-17T10:27:59.763Z,8.20
2023-04-17T10:30:50.513Z,9.37
2023-04-17T10:33:26.572Z,8.53
2023-04-17T10:35:57.557Z,8.70
2023-04-17T10:38:33.276Z,7.90
2023-04-17T10:41:02.535Z,9.13
2023-04-17T10:43:29.024Z,15.00
2023-04-17T10:46:07.953Z,8.50
2023-04-17T10:48:48.882Z,7.50
2023-04-17T10:51:21.274Z,7.23
2023-04-17T10:54:02.420Z,7.50
2023-04-17T10:56:31.857Z,8.13
2023-04-17T10:59:02.934Z,6.80
2023-04-17T11:01:36.491Z,7.07
2023-04-17T11:04:05.466Z,8.30
2023-04-17T11:06:32.875Z,8.20
2023-04-17T11:08:59.670Z,6.43
2023-04-17T11:14:14.027Z,11.43
2023-04-17T11:16:42.143Z,7.67
2023-04-17T11:19:24.243Z,5.93
2023-04-17T11:21:54.096Z,6.50
2023-04-17T11:24:28.146Z,7.43
2023-04-17T11:27:00.097Z,9.17
2023-04-17T11:29:30.983Z,7.07
2023-04-17T11:31:57.986Z,6.30
2023-04-17T11:34:31.720Z,5.83
2023-04-17T11:37:02.945Z,6.70
2023-04-17T11:39:33.852Z,5.27
2023-04-17T11:42:01.791Z,11.40
2023-04-17T11:44:32.488Z,6.40
2023-04-17T11:47:05.152Z,6.03
2023-04-17T11:49:32.711Z,6.60
2023-04-17T11:52:07.178Z,15.00
2023-04-17T11:54:38.559Z,7.63
2023-04-17T11:57:12.093Z,6.23
2023-04-17T11:59:41.329Z,6.47
2023-04-17T12:02:12.289Z,5.93
2023-04-17T12:04:43.543Z,6.73
2023-04-17T12:07:20.979Z,7.57
2023-04-17T12:09:56.866Z,6.43
2023-04-17T12:12:28.490Z,6.90
2023-04-17T12:14:58.546Z,6.23
2023-04-17T12:17:30.131Z,7.00
2023-04-17T12:20:03.396Z,7.03
2023-04-17T12:22:34.486Z,6.57
2023-04-17T12:25:07.764Z,8.77
2023-04-17T12:27:39.045Z,6.97
2023-04-17T12:30:10.528Z,6.60
2023-04-17T12:32:48.148Z,6.60
2023-04-17T12:35:20.831Z,6.70
2023-04-17T12:37:51.971Z,6.70
2023-04-17T12:40:27.461Z,7.10
2023-04-17T12:42:58.969Z,7.03
2023-04-17T12:45:29.842Z,7.63
2023-04-17T12:48:01.725Z,7.33
2023-04-17T12:50:32.715Z,7.00
2023-04-17T12:53:04.467Z,12.93
2023-04-17T12:55:37.964Z,8.67
2023-04-17T12:58:11.285Z,7.07
2023-04-17T13:00:43.943Z,7.77
2023-04-17T13:03:15.615Z,14.13
2023-04-17T13:05:52.479Z,15.03
2023-04-17T13:08:23.329Z,10.93
2023-04-17T13:10:55.502Z,11.10
2023-04-17T13:13:31.456Z,9.50
2023-04-17T13:16:02.707Z,11.20
2023-04-17T13:18:33.778Z,8.87
2023-04-17T13:21:04.786Z,12.00
2023-04-17T13:23:35.724Z,9.47
2023-04-17T13:26:06.408Z,9.53
2023-04-17T13:28:37.542Z,7.33
2023-04-17T13:31:10.403Z,12.43
2023-04-17T13:33:42.129Z,8.60
2023-04-17T13:36:13.159Z,14.20
2023-04-17T13:38:48.377Z,8.33
2023-04-17T13:41:18.405Z,8.80
2023-04-17T13:43:48.982Z,8.70
2023-04-17T13:46:19.205Z,9.30
2023-04-17T13:48:50.679Z,11.00
2023-04-17T13:51:20.076Z,10.20
2023-04-17T13:53:50.484Z,14.33
2023-04-17T13:56:27.538Z,9.77
2023-04-17T13:58:57.580Z,14.70
2023-04-17T14:01:27.589Z,12.00
2023-04-17T14:04:00.931Z,8.60
2023-04-17T14:06:28.284Z,11.00
2023-04-17T14:08:58.552Z,11.27
2023-04-17T14:11:29.279Z,12.13
2023-04-17T14:14:04.987Z,8.03
2023-04-17T14:16:34.475Z,8.13
2023-04-17T14:19:14.163Z,8.80
2023-04-17T14:21:46.919Z,9.30
2023-04-17T14:24:13.059Z,10.10
2023-04-17T14:26:41.281Z,7.77
2023-04-17T14:29:08.319Z,9.50
2023-04-17T14:31:41.245Z,12.73
2023-04-17T14:34:11.669Z,12.40
2023-04-17T14:36:43.410Z,8.00
2023-04-17T14:39:15.161Z,11.77
2023-04-17T14:41:45.545Z,11.33
2023-04-17T14:44:16.349Z,8.03
2023-04-17T14:46:46.972Z,8.00
2023-04-17T14:49:16.459Z,14.10
2023-04-17T14:51:46.508Z,7.23
2023-04-17T14:54:16.817Z,8.13
2023-04-17T14:56:49.685Z,8.57
2023-04-17T14:59:19.623Z,10.47
2023-04-17T15:01:49.379Z,7.80
2023-04-17T15:04:19.723Z,8.30
2023-04-17T15:06:49.847Z,8.03
2023-04-17T15:09:20.014Z,7.20
2023-04-17T15:11:50.052Z,8.97
2023-04-17T15:14:21.044Z,11.47
2023-04-17T15:16:50.327Z,8.50
2023-04-17T15:19:20.397Z,8.67
2023-04-17T15:21:52.561Z,7.63
2023-04-17T15:24:28.488Z,9.30
2023-04-17T15:26:54.862Z,9.90
2023-04-17T15:29:25.074Z,10.93
2023-04-17T15:31:55.898Z,8.70
2023-04-17T15:34:26.552Z,8.03
2023-04-17T15:37:02.612Z,7.90
2023-04-17T15:39:29.344Z,11.93
2023-04-17T15:42:00.379Z,8.27
2023-04-17T15:44:30.162Z,10.27
2023-04-17T15:47:01.728Z,8.97
2023-04-17T15:49:33.460Z,8.70
2023-04-17T15:52:03.856Z,9.07
2023-04-17T15:54:37.218Z,7.30
2023-04-17T15:57:04.112Z,8.47
2023-04-17T15:59:36.049Z,13.23
2023-04-17T16:02:06.549Z,8.47
2023-04-17T16:04:38.413Z,7.13
2023-04-17T16:07:07.094Z,7.80
2023-04-17T16:09:39.003Z,13.73
2023-04-17T16:12:09.257Z,9.70
2023-04-17T16:14:37.691Z,7.50
2023-04-17T16:17:12.701Z,12.03
2023-04-17T16:19:43.498Z,7.77
2023-04-17T16:22:13.009Z,12.80
2023-04-17T16:24:43.416Z,7.90
2023-04-17T16:27:13.524Z,8.40
2023-04-17T16:29:45.019Z,21.60
2023-04-17T16:32:14.159Z,7.93
2023-04-17T16:34:48.391Z,7.53
2023-04-17T16:37:18.749Z,8.33
2023-04-17T16:39:50.137Z,7.47
2023-04-17T16:42:19.451Z,14.93
2023-04-17T16:44:49.480Z,7.23
2023-04-17T16:47:19.674Z,6.50
2023-04-17T16:49:50.119Z,7.47
2023-04-17T16:52:23.427Z,8.40
2023-04-17T16:54:53.465Z,7.83
2023-04-17T16:57:23.558Z,7.10
2023-04-17T16:59:53.872Z,6.60
2023-04-17T17:02:24.295Z,9.97
2023-04-17T17:04:54.577Z,7.83
2023-04-17T17:07:24.950Z,7.30
2023-04-17T17:09:58.597Z,7.37
2023-04-17T17:12:28.899Z,10.10
2023-04-17T17:14:59.322Z,9.83
2023-04-17T17:17:29.709Z,11.33
2023-04-17T17:19:59.841Z,7.67
2023-04-17T17:22:30.734Z,7.40
2023-04-17T17:25:01.105Z,9.03
2023-04-17T17:27:35.280Z,13.87
2023-04-17T17:30:06.428Z,9.00
2023-04-17T17:32:35.819Z,10.00
2023-04-17T17:35:06.931Z,8.10
2023-04-17T17:37:36.524Z,8.40
2023-04-17T17:40:07.349Z,6.60
2023-04-17T17:42:36.651Z,7.20
2023-04-17T17:45:10.916Z,7.27
2023-04-17T17:47:41.477Z,7.70
2023-04-17T17:50:11.791Z,7.30
2023-04-17T17:52:41.776Z,8.47
2023-04-17T17:55:13.902Z,7.43
2023-04-17T17:57:48.938Z,8.90
2023-04-17T18:00:15.978Z,11.20
2023-04-17T18:02:52.246Z,7.40
2023-04-17T18:05:22.834Z,9.97
2023-04-17T18:07:52.447Z,10.43
2023-04-17T18:10:25.383Z,7.93
2023-04-17T18:12:56.351Z,9.23
2023-04-17T18:15:26.528Z,10.00
2023-04-17T18:17:56.627Z,24.63
2023-04-17T18:20:29.179Z,8.87
2023-04-17T18:22:59.810Z,11.30
2023-04-17T18:25:30.775Z,9.00
2023-04-17T18:28:05.545Z,9.13
2023-04-17T18:30:34.409Z,10.87
2023-04-17T18:33:04.628Z,8.97
2023-04-17T18:35:34.813Z,8.60
2023-04-17T18:38:05.228Z,10.43
2023-04-17T18:40:35.890Z,12.33
2023-04-17T18:43:05.966Z,12.40
2023-04-17T18:45:38.115Z,14.40
2023-04-17T18:48:08.992Z,16.00
2023-04-17T18:50:39.600Z,16.57
2023-04-17T18:53:09.684Z,16.87
2023-04-17T18:55:42.729Z,12.70
2023-04-17T18:58:12.960Z,18.50
2023-04-17T19:00:43.154Z,14.77
2023-04-17T19:03:13.359Z,14.70
2023-04-17T19:05:43.880Z,14.27
2023-04-17T19:08:14.304Z,13.63
2023-04-17T19:10:44.458Z,22.13
2023-04-17T19:13:18.768Z,16.80
2023-04-17T19:15:48.818Z,16.97
2023-04-17T19:18:18.894Z,17.40
2023-04-17T19:20:49.365Z,20.67
2023-04-17T19:23:19.132Z,14.80
2023-04-17T19:25:54.193Z,16.50
2023-04-17T19:28:20.801Z,14.10
2023-04-17T19:31:00.182Z,17.87
2023-04-17T19:33:26.712Z,12.33
2023-04-17T19:35:57.644Z,16.30
2023-04-17T19:38:30.860Z,17.60
2023-04-17T19:41:17.652Z,12.47
2023-04-17T19:43:45.309Z,14.30
2023-04-17T19:46:19.252Z,18.37
2023-04-17T19:48:46.440Z,11.97
2023-04-17T19:51:13.638Z,14.17
2023-04-17T19:53:41.575Z,14.50
2023-04-17T19:56:16.354Z,15.47
2023-04-17T19:58:42.489Z,20.43
2023-04-17T20:01:08.738Z,23.17
2023-04-17T20:03:37.510Z,23.10
2023-04-17T20:06:13.228Z,32.30
2023-04-17T20:08:42.400Z,26.73
2023-04-17T20:11:14.996Z,19.00
2023-04-17T20:13:46.044Z,18.90
2023-04-17T20:16:16.763Z,19.63
2023-04-17T20:18:48.969Z,12.43
2023-04-17T20:21:17.989Z,11.33
2023-04-17T20:23:48.273Z,12.07
2023-04-17T20:26:17.750Z,9.47
2023-04-17T20:28:48.184Z,9.67
2023-04-17T20:31:17.674Z,11.47
2023-04-17T20:33:48.091Z,9.10
2023-04-17T20:36:18.617Z,11.60
2023-04-17T20:38:49.162Z,12.17
2023-04-17T20:41:23.003Z,9.53
2023-04-17T20:44:00.208Z,13.23
2023-04-17T20:46:27.081Z,7.77
2023-04-17T20:48:53.900Z,8.50
2023-04-17T20:51:25.657Z,8.57
2023-04-17T20:53:55.767Z,8.33
2023-04-17T20:56:26.681Z,7.30
2023-04-17T20:59:02.856Z,11.83
2023-04-17T21:01:32.719Z,7.13
2023-04-17T21:04:03.297Z,7.90
2023-04-17T21:06:33.865Z,7.23
2023-04-17T21:09:04.412Z,10.30
2023-04-17T21:11:34.143Z,7.33
2023-04-17T21:14:03.866Z,10.53
2023-04-17T21:16:37.829Z,7.60
2023-04-17T21:19:07.663Z,7.27
2023-04-17T21:21:37.706Z,7.27
2023-04-17T21:24:08.168Z,7.43
2023-04-17T21:26:37.801Z,7.77
2023-04-17T21:29:08.111Z,7.43
2023-04-17T21:31:38.194Z,7.70
2023-04-17T21:34:12.452Z,7.17
2023-04-17T21:36:42.555Z,7.77
2023-04-17T21:39:13.495Z,7.03
2023-04-17T21:41:43.492Z,7.63
2023-04-17T21:44:15.409Z,7.90
2023-04-17T21:46:46.308Z,7.87
2023-04-17T21:49:17.300Z,7.90
2023-04-17T21:51:52.539Z,8.20
2023-04-17T21:54:24.682Z,9.03
2023-04-17T21:56:54.126Z,8.03
2023-04-17T21:59:24.618Z,8.83
2023-04-17T22:01:55.062Z,8.10
2023-04-17T22:04:26.128Z,10.07
2023-04-17T22:06:56.893Z,8.90
2023-04-17T22:09:30.735Z,11.67
2023-04-17T22:12:19.869Z,9.43
2023-04-17T22:14:47.330Z,9.73
2023-04-17T22:17:17.852Z,14.83
2023-04-17T22:19:43.971Z,13.30
2023-04-17T22:22:10.298Z,9.53
2023-04-17T22:24:36.440Z,12.10
2023-04-17T22:27:06.898Z,10.23
2023-04-17T22:29:37.537Z,8.90
2023-04-17T22:32:07.250Z,10.07
2023-04-17T22:34:37.210Z,9.90
2023-04-17T22:37:07.658Z,9.67
2023-04-17T22:39:37.419Z,10.10
2023-04-17T22:42:07.566Z,9.60
2023-04-17T22:44:43.182Z,9.00
2023-04-17T22:47:13.634Z,9.17
2023-04-17T22:49:43.377Z,9.20
2023-04-17T22:52:12.963Z,8.23
2023-04-17T22:54:43.255Z,9.10
2023-04-17T22:57:13.508Z,9.20
2023-04-17T22:59:43.844Z,9.40
2023-04-17T23:02:17.536Z,9.00
2023-04-17T23:04:47.684Z,10.27
2023-04-17T23:07:18.064Z,8.50
2023-04-17T23:09:48.536Z,9.17
2023-04-17T23:12:19.237Z,9.47
2023-04-17T23:14:49.240Z,8.60
2023-04-17T23:17:19.320Z,14.83
2023-04-17T23:19:52.602Z,8.87
2023-04-17T23:22:23.139Z,9.00
2023-04-17T23:24:53.476Z,8.97
2023-04-17T23:27:23.321Z,9.07
2023-04-17T23:29:58.135Z,8.93
2023-04-17T23:32:26.477Z,8.37
2023-04-17T23:34:56.443Z,8.97
2023-04-17T23:37:26.572Z,10.00
2023-04-17T23:39:56.881Z,9.23
2023-04-17T23:42:26.866Z,17.03
2023-04-17T23:44:57.207Z,9.43
2023-04-17T23:47:32.628Z,9.83
2023-04-17T23:50:04.750Z,8.90
2023-04-17T23:52:33.426Z,8.83
2023-04-17T23:55:03.996Z,9.20
2023-04-17T23:57:37.007Z,10.23
